Time;durP1;ratioP1;P1;durP2;ratioP2;P2;SDS_P1;SDS_P2;PMS_P1;PMS_P2;Temp;Humidity;BMP_temperature;BMP_pressure;BME280_temperature;BME280_humidity;BME280_pressure;Samples;Min_cycle;Max_cycle;Signal;HPM_P1;HPM_P2
2022/10/30 00:00:11;;;;;;;20.98;8.95;;;;;;;22.80;100.00;101496.88;4977128;28;20039;-51
2022/10/30 00:02:39;;;;;;;25.60;9.47;;;;;;;22.81;100.00;101498.53;4986442;28;20046;-52
2022/10/30 00:05:05;;;;;;;24.17;9.10;;;;;;;23.28;100.00;101510.56;4989467;28;20031;-52
2022/10/30 00:07:32;;;;;;;;;;;;;;;23.24;100.00;101498.50;4987049;28;20114;-51
2022/10/30 00:09:57;;;;;;;20.50;8.63;;;;;;;22.85;100.00;101504.28;4984687;28;19918;-49
2022/10/30 00:12:23;;;;;;;31.10;9.75;;;;;;;23.14;100.00;101495.72;4986758;28;20035;-53
2022/10/30 00:14:49;;;;;;;;;;;;;;;22.91;100.00;101504.03;4983345;28;20031;-55
2022/10/30 00:17:14;;;;;;;28.00;8.90;;;;;;;23.26;100.00;101501.81;4986459;28;19978;-54
2022/10/30 00:19:40;;;;;;;24.30;8.57;;;;;;;23.30;100.00;101504.84;4985614;28;20031;-56
2022/10/30 00:22:06;;;;;;;24.90;9.25;;;;;;;23.01;100.00;101503.28;4970608;28;20065;-55
2022/10/30 00:24:32;;;;;;;19.17;8.80;;;;;;;22.77;100.00;101505.59;4967764;28;20027;-55
2022/10/30 00:26:57;;;;;;;22.45;7.50;;;;;;;22.45;100.00;101511.84;4989042;28;20039;-54
2022/10/30 00:29:25;;;;;;;20.50;8.80;;;;;;;22.28;100.00;101495.63;4988325;28;20042;-56
2022/10/30 00:31:53;;;;;;;20.77;8.57;;;;;;;22.68;100.00;101496.25;4985925;28;20038;-53
2022/10/30 00:34:19;;;;;;;26.80;9.57;;;;;;;22.76;100.00;101496.59;4986907;28;20038;-51
2022/10/30 00:36:44;;;;;;;24.35;8.38;;;;;;;22.53;100.00;101483.31;4990786;28;20039;-52
2022/10/30 00:39:10;;;;;;;24.67;9.30;;;;;;;22.23;100.00;101492.88;4988595;28;20045;-53
2022/10/30 00:41:38;;;;;;;;;;;;;;;22.37;100.00;101485.88;4985000;28;20062;-54
2022/10/30 00:44:22;;;;;;;;;;;;;;;22.30;100.00;101486.13;4987256;28;19906;-53
2022/10/30 00:46:48;;;;;;;28.83;8.63;;;;;;;22.45;100.00;101495.50;4985861;28;19913;-50
2022/10/30 00:49:15;;;;;;;21.73;9.57;;;;;;;22.10;100.00;101489.47;4991886;28;20058;-51
2022/10/30 00:51:46;;;;;;;18.73;8.93;;;;;;;22.28;100.00;101485.56;4990872;28;20070;-54
2022/10/30 00:54:14;;;;;;;14.40;7.50;;;;;;;22.23;100.00;101490.13;5008645;28;20030;-53
2022/10/30 00:56:41;;;;;;;21.33;7.97;;;;;;;22.30;100.00;101491.56;5000658;28;20105;-51
2022/10/30 00:59:14;;;;;;;24.35;8.70;;;;;;;22.30;100.00;101491.56;4995189;28;20065;-52
2022/10/30 01:01:44;;;;;;;20.60;8.70;;;;;;;22.17;100.00;101484.66;4995595;28;20026;-52
2022/10/30 01:04:12;;;;;;;22.23;8.43;;;;;;;22.02;100.00;101479.03;5001231;28;20056;-51
2022/10/30 01:06:40;;;;;;;26.17;9.33;;;;;;;21.79;100.00;101478.28;4991589;28;20035;-52
2022/10/30 01:09:05;;;;;;;19.90;7.67;;;;;;;21.88;100.00;101484.88;4992623;28;20046;-53
2022/10/30 01:11:32;;;;;;;23.33;8.43;;;;;;;21.99;100.00;101487.72;5024190;28;20057;-53
2022/10/30 01:14:03;;;;;;;25.30;7.95;;;;;;;21.86;100.00;101495.22;5005150;28;20034;-56
2022/10/30 01:16:51;;;;;;;27.57;8.83;;;;;;;21.91;100.00;101505.34;4996153;28;20035;-54
2022/10/30 01:19:38;;;;;;;28.38;8.80;;;;;;;21.60;100.00;101494.91;5013261;28;20039;-54
2022/10/30 01:22:17;;;;;;;23.27;9.73;;;;;;;22.05;100.00;101497.59;5007873;28;20046;-51
2022/10/30 01:25:05;;;;;;;20.47;9.13;;;;;;;22.14;100.00;101501.47;4989960;28;20285;-48
2022/10/30 01:27:52;;;;;;;22.60;8.77;;;;;;;21.93;100.00;101500.47;4988822;28;20042;-52
2022/10/30 01:30:46;;;;;;;25.02;8.50;;;;;;;22.03;100.00;101495.16;4995044;28;20064;-55
2022/10/30 01:33:33;;;;;;;22.20;8.50;;;;;;;22.07;100.00;101500.88;4998914;28;20037;-51
2022/10/30 01:36:18;;;;;;;23.43;9.20;;;;;;;21.73;100.00;101492.91;4997644;28;20034;-52
2022/10/30 01:38:58;;;;;;;21.73;9.10;;;;;;;21.95;100.00;101497.50;5017430;28;20062;-54
2022/10/30 01:41:26;;;;;;;22.53;9.00;;;;;;;21.85;100.00;101499.03;5002760;28;20287;-50
2022/10/30 01:43:57;;;;;;;31.33;9.30;;;;;;;21.27;100.00;101496.69;4997075;28;20033;-53
2022/10/30 01:46:40;;;;;;;26.97;8.93;;;;;;;21.39;100.00;101490.28;5006927;28;20279;-52
2022/10/30 01:49:36;;;;;;;21.47;9.10;;;;;;;21.40;100.00;101497.38;5024639;28;20060;-52
2022/10/30 01:52:27;;;;;;;28.83;9.20;;;;;;;21.28;100.00;101492.03;4986480;28;20319;-49
2022/10/30 01:55:08;;;;;;;22.60;8.87;;;;;;;21.24;100.00;101494.47;4985555;28;20268;-53
2022/10/30 01:57:49;;;;;;;19.43;8.67;;;;;;;21.03;100.00;101496.91;4984830;28;20288;-51
2022/10/30 02:00:18;;;;;;;22.70;9.57;;;;;;;21.09;100.00;101502.41;4984025;28;20272;-52
2022/10/30 02:02:48;;;;;;;23.10;8.50;;;;;;;21.31;100.00;101508.69;4985324;28;20269;-50
2022/10/30 02:05:34;;;;;;;25.77;9.10;;;;;;;21.28;100.00;101505.66;4981082;28;20289;-49
2022/10/30 02:08:00;;;;;;;24.27;8.70;;;;;;;21.56;100.00;101501.09;4980753;28;20300;-49
2022/10/30 02:10:26;;;;;;;18.65;8.30;;;;;;;21.56;100.00;101496.50;4979971;28;20031;-53
2022/10/30 02:12:53;;;;;;;25.43;9.20;;;;;;;21.55;100.00;101513.91;4981521;28;20040;-50
2022/10/30 02:15:20;;;;;;;24.87;9.90;;;;;;;21.61;100.00;101504.72;4980027;28;20058;-49
2022/10/30 02:17:46;;;;;;;18.83;9.77;;;;;;;21.96;100.00;101504.59;4989353;28;20277;-51
2022/10/30 02:20:15;;;;;;;26.30;9.40;;;;;;;22.07;100.00;101500.88;4985710;28;20031;-52
2022/10/30 02:22:41;;;;;;;29.80;10.50;;;;;;;21.74;100.00;101494.56;4983346;28;20287;-49
2022/10/30 02:25:07;;;;;;;27.08;10.07;;;;;;;21.29;100.00;101502.69;4974674;28;20055;-50
2022/10/30 02:27:33;;;;;;;25.80;9.57;;;;;;;21.54;100.00;101498.66;4979660;28;20040;-53
2022/10/30 02:29:59;;;;;;;25.63;9.13;;;;;;;21.43;100.00;101496.84;4982529;28;20292;-53
2022/10/30 02:32:26;;;;;;;19.60;9.60;;;;;;;21.78;100.00;101503.84;5000859;28;20265;-53
2022/10/30 02:34:52;;;;;;;25.52;9.35;;;;;;;22.14;100.00;101506.94;4990550;28;20028;-48
2022/10/30 02:37:17;;;;;;;25.45;8.82;;;;;;;21.87;100.00;101521.38;4983805;28;20045;-53
2022/10/30 02:39:43;;;;;;;35.85;10.25;;;;;;;21.74;100.00;101516.31;4978101;28;20085;-51
2022/10/30 02:42:09;;;;;;;;;;;;;;;21.81;100.00;101506.06;4981430;28;20045;-50
2022/10/30 02:44:35;;;;;;;19.97;9.00;;;;;;;21.85;100.00;101514.53;4979302;28;19926;-55
2022/10/30 02:47:01;;;;;;;31.55;10.80;;;;;;;21.69;100.00;101505.38;4979495;28;20776;-51
2022/10/30 02:49:27;;;;;;;24.20;10.25;;;;;;;21.77;100.00;101502.19;4987827;28;20043;-54
2022/10/30 02:51:53;;;;;;;24.63;8.98;;;;;;;21.59;100.00;101500.63;4983761;28;20107;-52
2022/10/30 02:54:18;;;;;;;32.25;10.48;;;;;;;21.42;100.00;101506.09;5007508;28;20038;-49
2022/10/30 02:56:44;;;;;;;27.50;10.25;;;;;;;21.39;100.00;101512.03;4993065;28;20039;-51
2022/10/30 02:59:10;;;;;;;24.65;10.15;;;;;;;21.97;100.00;101520.66;4988452;28;20035;-51
2022/10/30 03:01:36;;;;;;;22.15;8.82;;;;;;;22.16;100.00;101518.41;5016462;28;20039;-53
2022/10/30 03:04:02;;;;;;;23.58;9.48;;;;;;;21.86;100.00;101522.44;5021041;28;20045;-52
2022/10/30 03:06:28;;;;;;;28.00;10.15;;;;;;;21.88;100.00;101516.75;4991289;28;20039;-49
2022/10/30 03:08:56;;;;;;;24.03;10.13;;;;;;;21.72;100.00;101519.28;4996538;28;20034;-49
2022/10/30 03:11:21;;;;;;;29.73;10.07;;;;;;;21.89;100.00;101521.13;5011401;28;20272;-52
2022/10/30 03:13:47;;;;;;;24.27;8.95;;;;;;;22.03;100.00;101524.25;4999344;28;20042;-52
2022/10/30 03:16:18;;;;;;;23.23;9.95;;;;;;;21.80;100.00;101523.47;5021595;28;20021;-50
2022/10/30 03:18:44;;;;;;;22.87;10.33;;;;;;;21.88;100.00;101523.00;5009936;28;20117;-53
2022/10/30 03:21:13;;;;;;;31.40;11.32;;;;;;;21.26;100.00;101514.06;5010641;28;20310;-48
2022/10/30 03:23:38;;;;;;;23.50;10.10;;;;;;;20.99;100.00;101520.22;5008684;28;20038;-54
2022/10/30 03:26:04;;;;;;;25.33;10.95;;;;;;;21.31;100.00;101513.28;5010360;28;20300;-48
2022/10/30 03:28:34;;;;;;;26.30;9.83;;;;;;;21.36;100.00;101513.38;5012421;28;20038;-49
2022/10/30 03:31:04;;;;;;;29.03;11.20;;;;;;;21.38;100.00;101518.56;5009309;28;20271;-48
2022/10/30 03:33:31;;;;;;;23.83;10.57;;;;;;;21.31;100.00;101513.28;5003916;28;20268;-51
2022/10/30 03:35:57;;;;;;;;;;;;;;;21.54;100.00;101520.41;5003951;28;20269;-53
2022/10/30 03:38:23;;;;;;;21.20;10.67;;;;;;;21.43;100.00;101519.47;5014206;28;19921;-50
2022/10/30 03:40:48;;;;;;;27.83;10.50;;;;;;;21.53;100.00;101526.09;5018178;28;20276;-50
2022/10/30 03:43:15;;;;;;;;;;;;;;;21.15;100.00;101523.16;5027656;28;20052;-50
2022/10/30 03:45:48;;;;;;;31.77;9.93;;;;;;;21.47;100.00;101520.59;5008066;28;19916;-50
2022/10/30 03:48:15;;;;;;;25.97;9.67;;;;;;;21.64;100.00;101522.44;5017310;28;20284;-53
2022/10/30 03:50:43;;;;;;;21.37;9.83;;;;;;;21.81;100.00;101524.31;4986987;28;20027;-47
2022/10/30 03:53:09;;;;;;;25.77;10.95;;;;;;;22.75;100.00;101521.41;5056814;28;20279;-51
2022/10/30 03:55:35;;;;;;;25.48;11.43;;;;;;;21.85;100.00;101526.25;5060440;28;20032;-52
2022/10/30 03:58:01;;;;;;;24.48;10.50;;;;;;;21.02;100.00;101529.75;5066201;28;20053;-50
2022/10/30 04:00:29;;;;;;;25.13;10.13;;;;;;;20.83;100.00;101529.22;5061289;28;20032;-50
2022/10/30 04:02:57;;;;;;;27.67;10.37;;;;;;;20.92;100.00;101531.28;5061833;28;20289;-52
2022/10/30 04:05:25;;;;;;;24.10;10.57;;;;;;;21.06;100.00;101529.03;5066958;28;20278;-51
2022/10/30 04:08:00;;;;;;;31.57;10.60;;;;;;;21.40;100.00;101535.47;5063749;28;20281;-50
2022/10/30 04:10:29;;;;;;;20.48;10.32;;;;;;;21.40;100.00;101524.56;5063832;28;20271;-51
2022/10/30 04:13:03;;;;;;;38.17;10.27;;;;;;;21.44;100.00;101539.31;5065207;28;20033;-51
2022/10/30 04:15:29;;;;;;;30.03;10.50;;;;;;;21.46;100.00;101535.28;5066962;28;20262;-50
2022/10/30 04:17:56;;;;;;;27.00;10.97;;;;;;;21.34;100.00;101527.22;5063261;28;20266;-54
2022/10/30 04:20:23;;;;;;;22.45;9.88;;;;;;;21.26;100.00;101529.56;5067816;28;20342;-53
2022/10/30 04:22:55;;;;;;;20.33;9.83;;;;;;;21.09;100.00;101522.25;5064266;28;20033;-49
2022/10/30 04:25:22;;;;;;;25.50;10.63;;;;;;;21.26;100.00;101526.84;5063001;28;20378;-52
2022/10/30 04:27:51;;;;;;;22.83;10.03;;;;;;;20.98;100.00;101526.72;5063928;28;20270;-52
2022/10/30 04:30:20;;;;;;;37.60;11.37;;;;;;;21.11;100.00;101522.84;5066284;28;20337;-52
2022/10/30 04:32:56;;;;;;;21.83;10.47;;;;;;;20.86;100.00;101531.44;5063133;28;20281;-48
2022/10/30 04:35:24;;;;;;;28.27;11.20;;;;;;;20.68;100.00;101514.25;5064007;28;20294;-50
2022/10/30 04:38:03;;;;;;;29.80;10.97;;;;;;;20.48;100.00;101512.84;5068001;28;20274;-53
2022/10/30 04:40:33;;;;;;;26.03;10.97;;;;;;;20.76;100.00;101511.16;5066258;28;20263;-52
2022/10/30 04:43:04;;;;;;;21.83;10.50;;;;;;;20.95;100.00;101497.31;5062068;28;20284;-52
2022/10/30 04:45:29;;;;;;;26.40;10.93;;;;;;;20.78;100.00;101506.28;5066991;28;20289;-51
2022/10/30 04:48:09;;;;;;;24.20;11.50;;;;;;;20.60;100.00;101504.63;5064744;28;20277;-51
2022/10/30 04:50:35;;;;;;;29.30;10.73;;;;;;;20.78;100.00;101509.00;5063801;28;20100;-52
2022/10/30 04:53:05;;;;;;;41.47;12.60;;;;;;;20.70;100.00;101509.41;4986762;28;20410;-50
2022/10/30 04:55:31;;;;;;;29.63;10.43;;;;;;;20.80;100.00;101500.63;4975601;28;20282;-50
2022/10/30 04:57:58;;;;;;;26.63;11.55;;;;;;;20.85;100.00;101497.16;4980879;28;20281;-48
2022/10/30 05:00:25;;;;;;;28.33;11.87;;;;;;;20.58;100.00;101500.53;4973473;28;20035;-50
2022/10/30 05:02:54;;;;;;;18.10;9.67;;;;;;;20.71;100.00;101504.81;4978421;28;20363;-53
2022/10/30 05:05:20;;;;;;;24.17;10.87;;;;;;;20.65;100.00;101503.91;4975112;28;20289;-48
2022/10/30 05:07:46;;;;;;;24.17;10.50;;;;;;;20.73;100.00;101506.19;4996791;28;20269;-52
2022/10/30 05:10:17;;;;;;;32.92;11.80;;;;;;;20.90;100.00;101503.50;4986678;28;20355;-49
2022/10/30 05:12:44;;;;;;;24.60;11.73;;;;;;;20.70;100.00;101516.75;4985497;28;20044;-51
2022/10/30 05:15:11;;;;;;;31.77;11.37;;;;;;;20.24;100.00;101517.63;4978778;28;20298;-50
2022/10/30 05:17:37;;;;;;;26.70;10.50;;;;;;;20.76;100.00;101527.47;4985870;28;20273;-51
2022/10/30 05:20:04;;;;;;;27.25;10.68;;;;;;;20.36;100.00;101522.97;4979273;28;20344;-47
2022/10/30 05:22:30;;;;;;;24.93;10.60;;;;;;;20.63;100.00;101530.50;4991072;28;20039;-49
2022/10/30 05:24:56;;;;;;;24.70;11.25;;;;;;;20.45;100.00;101537.00;4991195;28;20280;-51
2022/10/30 05:27:22;;;;;;;29.05;11.25;;;;;;;20.46;100.00;101525.88;4978763;28;20054;-51
2022/10/30 05:29:47;;;;;;;26.33;11.10;;;;;;;20.66;100.00;101532.72;4984705;28;20057;-52
2022/10/30 05:32:14;;;;;;;24.70;11.77;;;;;;;20.44;100.00;101524.47;4979199;28;20035;-51
2022/10/30 05:34:46;;;;;;;35.20;11.43;;;;;;;20.74;100.00;101523.34;4982802;28;20033;-49
2022/10/30 05:37:14;;;;;;;35.33;12.93;;;;;;;20.95;100.00;101524.50;4991230;28;20289;-50
2022/10/30 05:39:40;;;;;;;22.47;12.37;;;;;;;20.73;100.00;101522.50;4975680;28;20344;-50
2022/10/30 05:42:13;;;;;;;37.87;12.20;;;;;;;20.87;100.00;101516.75;4982869;28;20312;-49
2022/10/30 05:44:42;;;;;;;27.93;12.23;;;;;;;20.32;100.00;101524.53;4975476;28;20287;-46
2022/10/30 05:47:10;;;;;;;30.20;12.20;;;;;;;19.87;100.00;101518.81;4983494;28;20344;-50
2022/10/30 05:49:36;;;;;;;26.00;13.07;;;;;;;20.25;100.00;101516.53;4974486;28;20031;-51
2022/10/30 05:52:05;;;;;;;31.50;12.10;;;;;;;20.52;100.00;101521.34;4986579;28;20272;-53
2022/10/30 05:54:31;;;;;;;29.95;11.70;;;;;;;20.54;100.00;101523.84;4984316;28;20369;-50
2022/10/30 05:57:09;;;;;;;25.70;12.30;;;;;;;20.31;100.00;101528.34;4980462;28;20518;-52
2022/10/30 05:59:37;;;;;;;32.63;13.07;;;;;;;20.42;100.00;101521.19;4981845;28;20344;-52
2022/10/30 06:02:03;;;;;;;25.45;11.90;;;;;;;20.36;100.00;101512.13;4979394;28;20277;-53
2022/10/30 06:04:29;;;;;;;32.58;12.73;;;;;;;20.31;100.00;101514.75;4978330;28;20043;-54
2022/10/30 06:06:55;;;;;;;23.45;11.63;;;;;;;20.30;100.00;101518.53;4980762;28;20035;-51
2022/10/30 06:09:21;;;;;;;26.52;11.75;;;;;;;20.35;100.00;101505.03;4987494;28;20063;-49
2022/10/30 06:12:03;;;;;;;32.53;12.33;;;;;;;20.03;100.00;101508.25;4981006;28;20027;-50
2022/10/30 06:14:48;;;;;;;25.97;11.17;;;;;;;19.83;100.00;101503.25;4971185;28;20341;-53
2022/10/30 06:17:14;;;;;;;26.77;11.82;;;;;;;19.81;100.00;101503.47;4977366;28;20277;-49
2022/10/30 06:19:53;;;;;;;27.40;12.30;;;;;;;19.87;100.00;101498.97;4984871;28;20035;-48
2022/10/30 06:22:37;;;;;;;27.60;11.93;;;;;;;19.85;100.00;101496.50;4975684;28;20338;-54
2022/10/30 06:25:12;;;;;;;25.60;11.77;;;;;;;19.82;100.00;101493.44;4975407;28;20311;-53
2022/10/30 06:27:49;;;;;;;24.85;10.30;;;;;;;19.96;100.00;101491.28;4981464;28;20280;-47
2022/10/30 06:30:16;;;;;;;25.47;11.90;;;;;;;19.81;100.00;101503.47;4986844;28;20108;-53
2022/10/30 06:32:42;;;;;;;28.30;11.68;;;;;;;19.61;100.00;101496.59;4966561;28;20308;-51
2022/10/30 06:35:08;;;;;;;22.15;10.48;;;;;;;19.60;100.00;101496.81;4966791;28;20067;-52
2022/10/30 06:37:34;;;;;;;33.40;11.47;;;;;;;19.49;100.00;101501.22;4967655;28;20095;-47
2022/10/30 06:40:07;;;;;;;30.27;11.53;;;;;;;19.71;100.00;101511.41;4965372;28;20270;-51
2022/10/30 06:42:56;;;;;;;25.63;11.60;;;;;;;19.88;100.00;101508.75;4967640;28;20288;-50
2022/10/30 06:45:30;;;;;;;31.80;11.73;;;;;;;20.03;100.00;101508.25;4969491;28;21043;-49
2022/10/30 06:47:56;;;;;;;30.15;11.07;;;;;;;19.94;100.00;101515.16;4969887;28;20264;-53
2022/10/30 06:50:23;;;;;;;30.77;12.60;;;;;;;19.85;100.00;101518.22;4971233;28;20043;-49
2022/10/30 06:52:49;;;;;;;;;;;;;;;20.07;100.00;101506.72;4977776;28;20055;-51
2022/10/30 06:55:15;;;;;;;23.90;11.93;;;;;;;19.53;100.00;101499.66;4996588;28;19960;-52
2022/10/30 06:57:55;;;;;;;32.13;12.67;;;;;;;19.44;100.00;101507.34;4994486;28;20283;-51
2022/10/30 07:00:40;;;;;;;25.17;11.70;;;;;;;19.94;100.00;101512.44;4994327;28;20296;-50
2022/10/30 07:03:34;;;;;;;32.70;12.50;;;;;;;20.07;100.00;101514.88;4975788;28;20045;-53
2022/10/30 07:06:00;;;;;;;30.63;12.27;;;;;;;20.16;100.00;101521.53;4989976;28;20285;-49
2022/10/30 07:08:25;;;;;;;28.83;11.63;;;;;;;20.37;100.00;101519.19;4995406;28;20069;-50
2022/10/30 07:10:51;;;;;;;26.60;12.45;;;;;;;20.73;100.00;101518.97;4997598;28;20027;-50
2022/10/30 07:13:32;;;;;;;28.47;10.87;;;;;;;20.98;100.00;101513.13;4989102;28;20096;-49
2022/10/30 07:16:26;;;;;;;29.63;13.20;;;;;;;20.68;100.00;101518.91;5007643;28;20310;-49
2022/10/30 07:18:52;;;;;;;33.47;12.98;;;;;;;20.48;100.00;101514.75;5004827;28;20269;-50
2022/10/30 07:21:18;;;;;;;29.08;11.90;;;;;;;20.73;100.00;101527.13;4986343;28;20072;-47
2022/10/30 07:23:43;;;;;;;31.23;13.73;;;;;;;20.78;100.00;101530.75;4984383;28;20034;-52
2022/10/30 07:26:18;;;;;;;35.30;13.77;;;;;;;21.02;100.00;101535.19;5007124;28;20280;-50
2022/10/30 07:28:45;;;;;;;30.30;13.13;;;;;;;20.97;100.00;101538.66;5001255;28;20332;-51
2022/10/30 07:31:18;;;;;;;30.70;14.10;;;;;;;21.31;100.00;101535.91;4980230;28;20284;-47
2022/10/30 07:33:49;;;;;;;30.07;12.43;;;;;;;21.38;100.00;101537.59;5009056;28;20273;-51
2022/10/30 07:36:34;;;;;;;30.67;12.70;;;;;;;21.08;100.00;101526.03;5004211;28;20259;-51
2022/10/30 07:39:18;;;;;;;23.70;12.43;;;;;;;21.64;100.00;101527.88;5016923;28;20057;-50
2022/10/30 07:42:04;;;;;;;30.33;14.03;;;;;;;22.10;100.00;101522.16;5012538;28;20050;-52
2022/10/30 07:45:02;;;;;;;34.03;15.43;;;;;;;22.16;100.00;101518.41;5006694;28;20287;-51
2022/10/30 07:47:47;;;;;;;28.70;14.13;;;;;;;21.98;100.00;101516.03;5008799;28;20541;-49
2022/10/30 07:50:31;;;;;;;30.97;13.57;;;;;;;21.48;100.00;101508.63;4996408;28;20052;-49
2022/10/30 07:52:57;;;;;;;24.20;12.57;;;;;;;21.67;100.00;101502.91;4979938;28;20114;-48
2022/10/30 07:55:25;;;;;;;26.10;11.60;;;;;;;21.56;100.00;101501.09;4980020;28;20035;-51
2022/10/30 07:58:11;;;;;;;23.50;12.00;;;;;;;21.75;100.00;101509.81;4976636;28;20075;-51
2022/10/30 08:00:55;;;;;;;28.30;11.83;;;;;;;22.03;100.00;101510.66;4971990;28;20217;-51
2022/10/30 08:03:28;;;;;;;31.53;12.43;;;;;;;21.65;100.00;101506.94;4983235;28;20103;-52
2022/10/30 08:05:59;;;;;;;35.60;12.60;;;;;;;21.81;100.00;101522.38;4977505;28;20061;-47
2022/10/30 08:08:43;;;;;;;35.50;15.20;;;;;;;22.00;100.00;101519.34;4978498;28;20058;-51
2022/10/30 08:11:22;;;;;;;38.10;17.60;;;;;;;22.31;100.00;101516.91;4968858;28;20070;-51
2022/10/30 08:13:47;;;;;;;31.10;12.73;;;;;;;22.68;100.00;101521.63;4993295;28;20038;-50
2022/10/30 08:16:13;;;;;;;23.23;11.35;;;;;;;22.73;100.00;101518.13;4981174;28;20065;-50
2022/10/30 08:18:41;;;;;;;30.27;12.10;;;;;;;23.01;100.00;101524.31;4980970;28;20122;-51
2022/10/30 08:21:07;;;;;;;28.43;11.53;;;;;;;22.95;100.00;101514.41;4975593;28;20032;-50
2022/10/30 08:23:33;;;;;;;24.02;10.88;;;;;;;23.01;100.00;101519.66;4979644;28;20042;-49
2022/10/30 08:26:04;;;;;;;26.30;10.57;;;;;;;23.06;100.00;101521.59;4982668;28;20046;-52
2022/10/30 08:28:34;;;;;;;23.63;12.07;;;;;;;23.62;100.00;101518.34;4979551;28;20069;-49
2022/10/30 08:31:01;;;;;;;37.53;12.60;;;;;;;23.70;100.00;101521.66;4977238;28;20048;-50
2022/10/30 08:33:47;;;;;;;20.63;10.03;;;;;;;23.91;100.00;101520.63;4977597;28;20038;-47
2022/10/30 08:36:25;;;;;;;39.57;18.20;;;;;;;23.82;100.00;101522.25;4987708;28;20034;-50
2022/10/30 08:38:51;;;;;;;22.48;10.98;;;;;;;24.43;100.00;101525.38;4977636;28;20050;-49
2022/10/30 08:41:27;;;;;;;22.50;9.85;;;;;;;25.27;100.00;101535.16;4977289;28;20038;-51
2022/10/30 08:43:53;;;;;;;24.65;10.93;;;;;;;25.62;100.00;101525.19;4974604;28;20027;-50
2022/10/30 08:46:18;;;;;;;18.75;9.20;;;;;;;26.27;100.00;101531.66;4964490;28;20035;-51
2022/10/30 08:48:44;;;;;;;27.83;10.88;;;;;;;26.97;100.00;101533.25;4971836;28;20115;-52
2022/10/30 08:51:10;;;;;;;20.55;9.43;;;;;;;26.94;100.00;101538.53;4968997;28;20050;-49
2022/10/30 08:53:42;;;;;;;18.93;9.20;;;;;;;26.47;100.00;101534.25;4966215;28;20090;-52
2022/10/30 08:56:11;;;;;;;27.87;11.77;;;;;;;26.89;100.00;101532.00;4980409;28;20027;-49
2022/10/30 08:58:49;;;;;;;23.97;10.43;;;;;;;26.71;100.00;101535.44;4969836;28;20033;-49
2022/10/30 09:01:15;;;;;;;27.73;11.57;;;;;;;27.37;99.08;101541.38;4988160;28;20134;-51
2022/10/30 09:04:07;;;;;;;28.37;11.80;;;;;;;27.72;96.22;101546.72;4976938;28;20114;-51
2022/10/30 09:06:51;;;;;;;22.17;11.07;;;;;;;27.29;96.74;101540.06;4989969;28;20062;-52
2022/10/30 09:09:23;;;;;;;34.60;11.43;;;;;;;27.65;95.60;101536.09;4990659;28;20039;-53
2022/10/30 09:11:52;;;;;;;24.53;10.00;;;;;;;28.16;91.66;101542.81;4973967;28;20054;-53
2022/10/30 09:14:18;;;;;;;23.75;9.40;;;;;;;27.94;91.89;101539.84;4972901;28;20088;-52
2022/10/30 09:16:43;;;;;;;23.90;9.65;;;;;;;28.61;88.87;101533.31;4973225;28;20103;-51
2022/10/30 09:19:09;;;;;;;;;;;;;;;29.10;85.47;101530.25;4969204;28;20030;-52
2022/10/30 09:21:34;;;;;;;29.30;10.20;;;;;;;29.28;84.76;101534.81;4990104;28;19977;-51
2022/10/30 09:24:00;;;;;;;;;;;;;;;29.13;86.33;101527.69;4972496;28;20035;-53
2022/10/30 09:26:34;;;;;;;23.90;10.50;;;;;;;29.96;82.10;101519.63;4992110;28;19926;-51
2022/10/30 09:29:21;;;;;;;28.10;10.67;;;;;;;30.10;79.96;101519.59;4988424;28;20043;-53
2022/10/30 09:32:09;;;;;;;20.33;10.23;;;;;;;30.33;78.73;101515.72;4988892;28;20046;-51
2022/10/30 09:34:44;;;;;;;20.25;9.35;;;;;;;30.34;78.11;101530.31;4987656;28;20018;-51
2022/10/30 09:37:23;;;;;;;23.52;10.82;;;;;;;30.07;78.79;101534.84;4974476;28;20038;-54
2022/10/30 09:39:52;;;;;;;18.92;9.38;;;;;;;29.65;80.28;101525.84;4982849;28;20092;-54
2022/10/30 09:42:35;;;;;;;20.80;9.07;;;;;;;28.81;84.11;101532.16;4961280;28;20031;-51
2022/10/30 09:45:20;;;;;;;26.40;10.27;;;;;;;28.83;85.66;101529.91;4966915;28;20039;-54
2022/10/30 09:48:00;;;;;;;22.47;9.97;;;;;;;29.40;84.05;101542.56;4979721;28;20042;-51
2022/10/30 09:50:44;;;;;;;23.92;10.65;;;;;;;29.60;81.57;101546.03;4973681;28;20038;-53
2022/10/30 09:53:29;;;;;;;22.98;9.75;;;;;;;29.21;83.30;101545.44;4972190;28;20055;-54
2022/10/30 09:56:05;;;;;;;26.77;9.60;;;;;;;28.82;84.30;101550.28;4974596;28;20023;-53
2022/10/30 09:58:52;;;;;;;23.35;10.52;;;;;;;28.37;88.21;101544.44;4975557;28;20062;-57
2022/10/30 10:01:25;;;;;;;26.07;10.93;;;;;;;28.18;90.35;101545.25;4971854;28;20179;-49
2022/10/30 10:04:24;;;;;;;28.77;11.13;;;;;;;28.08;92.29;101550.91;4970468;28;20102;-50
2022/10/30 10:07:46;;;;;;;25.97;11.03;;;;;;;28.14;91.50;101558.78;4983814;28;20042;-50
2022/10/30 10:10:37;;;;;;;23.30;10.20;;;;;;;28.99;85.47;101560.72;4991988;28;20085;-52
2022/10/30 10:13:25;;;;;;;32.17;13.40;;;;;;;30.50;78.88;101566.63;4983539;28;20031;-54
2022/10/30 10:15:57;;;;;;;30.58;13.35;;;;;;;30.91;76.13;101564.78;4995056;28;20045;-54
2022/10/30 10:18:30;;;;;;;33.50;15.38;;;;;;;32.54;69.58;101568.84;4990181;28;20057;-51
2022/10/30 10:21:00;;;;;;;26.70;11.05;;;;;;;33.72;65.42;101572.09;4993172;28;20062;-53
2022/10/30 10:23:43;;;;;;;24.67;10.05;;;;;;;34.68;60.08;101571.63;4995906;28;20054;-52
2022/10/30 10:26:36;;;;;;;28.50;10.10;;;;;;;34.21;59.72;101575.50;4994155;28;20091;-52
2022/10/30 10:29:26;;;;;;;20.50;9.63;;;;;;;34.71;57.21;101560.63;4980418;28;20071;-50
2022/10/30 10:32:43;;;;;;;33.50;12.23;;;;;;;34.99;56.18;101573.88;4989160;28;20035;-50
2022/10/30 10:35:35;;;;;;;27.10;10.32;;;;;;;34.20;56.88;101571.09;4956516;28;20083;-53
2022/10/30 10:38:09;;;;;;;22.83;11.82;;;;;;;34.28;57.07;101567.44;4949401;28;20068;-50
2022/10/30 10:40:52;;;;;;;30.77;11.93;;;;;;;34.45;55.97;101570.03;4976378;28;20046;-55
2022/10/30 10:43:31;;;;;;;16.67;8.88;;;;;;;35.25;53.58;101558.84;4991998;28;20035;-52
2022/10/30 10:46:27;;;;;;;17.85;8.35;;;;;;;35.59;52.64;101565.09;4985717;28;20027;-54
2022/10/30 10:49:24;;;;;;;16.52;9.20;;;;;;;35.67;51.96;101560.56;4989146;28;20027;-52
2022/10/30 10:51:53;;;;;;;;;;;;;;;35.90;52.02;101557.25;4992267;28;20058;-55
2022/10/30 10:54:30;;;;;;;22.95;9.05;;;;;;;36.60;50.50;101560.78;4993124;28;19929;-55
2022/10/30 10:56:58;;;;;;;21.33;8.50;;;;;;;37.15;49.96;101568.53;4989470;28;20031;-50
2022/10/30 10:59:42;;;;;;;17.85;7.97;;;;;;;37.60;48.44;101574.75;4987963;28;20031;-51
2022/10/30 11:02:08;;;;;;;18.05;7.60;;;;;;;37.55;47.67;101572.25;4986422;28;20098;-52
2022/10/30 11:04:44;;;;;;;20.13;8.43;;;;;;;37.88;46.96;101573.75;4982868;28;20039;-54
2022/10/30 11:07:20;;;;;;;22.67;8.30;;;;;;;36.80;47.49;101572.84;4987787;28;20034;-55
2022/10/30 11:09:51;;;;;;;13.30;6.80;;;;;;;37.24;46.85;101569.16;4975526;28;20035;-54
2022/10/30 11:12:21;;;;;;;21.13;8.27;;;;;;;37.95;46.19;101571.13;4986431;28;20034;-52
2022/10/30 11:14:47;;;;;;;17.33;8.25;;;;;;;38.13;44.66;101562.28;4986352;28;20038;-55
2022/10/30 11:17:34;;;;;;;18.27;7.70;;;;;;;37.29;45.52;101549.34;4985205;28;20028;-55
2022/10/30 11:20:10;;;;;;;20.00;6.95;;;;;;;36.51;46.21;101543.41;4983723;28;20095;-54
2022/10/30 11:22:40;;;;;;;18.73;8.02;;;;;;;36.58;46.85;101532.47;4985383;28;20031;-54
2022/10/30 11:25:17;;;;;;;20.95;7.18;;;;;;;36.89;46.50;101536.41;4993735;28;20042;-55
2022/10/30 11:27:46;;;;;;;25.75;8.73;;;;;;;37.31;45.76;101535.03;4985440;28;20038;-55
2022/10/30 11:30:18;;;;;;;22.45;8.75;;;;;;;37.31;46.51;101524.69;4986085;28;20041;-52
2022/10/30 11:32:44;;;;;;;18.95;7.32;;;;;;;38.32;44.52;101527.97;4986080;28;20114;-54